PWSweather.com
Personal Weather Stations
Station Observations
ANTHEMNP
Anthem North Parkside, Anthem, AZ 85086

Anthem North ParksideAnthem, AZ 85086

Lat: 33.876464, Lon: -112.13861199999997

Elevation: 1930

Station Type: Davis Vantage Vue with Pro 2 console

http://www.azjerry.com/ANPW/wxindex.php

High Low Average
Temperature 106.7°F41.5°C 82.9°F28.3°C 95.5°F35.3°C
Dew Point 61.0°F16.1°C 49.0°F9.4°C 55.8°F13.2°C
Winds 5.7 mph 9.2 kmh Calm Calm 2.0 mph SSE3.2 kmh SSE
Wind Gusts 17.0 mph27.4 kmh -- 6.0 mph9.7 kmh
Humidity 40% 16% 27%
Pressure 29.87 in1011.5 mb 29.70 in1005.8 mb -
Precipitation 0.00 in0.0 mm - -
Hour Temp Dew Point Humidity Winds Wind Gusts Pressure Precip Precip Rate Daily Precip Total
12:00 AM 94.1°F34.5°C 54.0°F12.2°C 26% 0.1 mph SE0.2 kmh SE 1.0 mph1.6 kmh 29.78 in1008.5 mb 0.00 in0.0 mm 0.00 in0.0 mm 0.00 in0.0 mm
12:10 AM 93.8°F34.3°C 55.0°F12.8°C 27% Calm Calm 1.0 mph1.6 kmh 29.77 in1008.1 mb 0.00 in0.0 mm 0.00 in0.0 mm 0.00 in0.0 mm
12:20 AM 92.7°F33.7°C 54.0°F12.2°C 27% Calm Calm -- 29.78 in1008.5 mb 0.00 in0.0 mm 0.00 in0.0 mm 0.00 in0.0 mm
12:30 AM 92.0°F33.3°C 55.0°F12.8°C 28% Calm Calm 1.0 mph1.6 kmh 29.78 in1008.5 mb 0.00 in0.0 mm 0.00 in0.0 mm 0.00 in0.0 mm
12:40 AM 92.6°F33.7°C 54.0°F12.2°C 27% 0.6 mph SSW1.0 kmh SSW 4.0 mph6.4 kmh 29.78 in1008.5 mb 0.00 in0.0 mm 0.00 in0.0 mm 0.00 in0.0 mm
12:50 AM 92.1°F33.4°C 55.0°F12.8°C 28% 0.1 mph SSW0.2 kmh SSW 3.0 mph4.8 kmh 29.78 in1008.5 mb 0.00 in0.0 mm 0.00 in0.0 mm 0.00 in0.0 mm
01:00 AM 91.9°F33.3°C 53.0°F11.7°C 27% 0.2 mph SW0.3 kmh SW 3.0 mph4.8 kmh 29.77 in1008.1 mb 0.00 in0.0 mm 0.00 in0.0 mm 0.00 in0.0 mm
01:10 AM 91.7°F33.2°C 54.0°F12.2°C 28% 0.4 mph S0.6 kmh S 3.0 mph4.8 kmh 29.77 in1008.1 mb 0.00 in0.0 mm 0.00 in0.0 mm 0.00 in0.0 mm
01:20 AM 92.1°F33.4°C 55.0°F12.8°C 28% 1.4 mph SW2.3 kmh SW 4.0 mph6.4 kmh 29.77 in1008.1 mb 0.00 in0.0 mm 0.00 in0.0 mm 0.00 in0.0 mm
01:30 AM 92.1°F33.4°C 55.0°F12.8°C 28% 1.2 mph S1.9 kmh S 5.0 mph8.0 kmh 29.77 in1008.1 mb 0.00 in0.0 mm 0.00 in0.0 mm 0.00 in0.0 mm
01:40 AM 91.8°F33.2°C 55.0°F12.8°C 29% 1.1 mph SW1.8 kmh SW 3.0 mph4.8 kmh 29.77 in1008.1 mb 0.00 in0.0 mm 0.00 in0.0 mm 0.00 in0.0 mm
01:50 AM 91.4°F33.0°C 55.0°F12.8°C 29% 0.5 mph SW0.8 kmh SW 2.0 mph3.2 kmh 29.77 in1008.1 mb 0.00 in0.0 mm 0.00 in0.0 mm 0.00 in0.0 mm
02:00 AM 91.0°F32.8°C 56.0°F13.3°C 30% 0.2 mph SSW0.3 kmh SSW 2.0 mph3.2 kmh 29.76 in1007.8 mb 0.00 in0.0 mm 0.00 in0.0 mm 0.00 in0.0 mm
02:10 AM 90.1°F32.3°C 56.0°F13.3°C 31% Calm Calm -- 29.76 in1007.8 mb 0.00 in0.0 mm 0.00 in0.0 mm 0.00 in0.0 mm
02:20 AM 89.3°F31.8°C 56.0°F13.3°C 32% Calm Calm -- 29.77 in1008.1 mb 0.00 in0.0 mm 0.00 in0.0 mm 0.00 in0.0 mm
02:30 AM 88.6°F31.4°C 56.0°F13.3°C 33% Calm Calm -- 29.77 in1008.1 mb 0.00 in0.0 mm 0.00 in0.0 mm 0.00 in0.0 mm
02:40 AM 88.1°F31.2°C 57.0°F13.9°C 35% Calm Calm -- 29.77 in1008.1 mb 0.00 in0.0 mm 0.00 in0.0 mm 0.00 in0.0 mm
02:50 AM 88.1°F31.2°C 56.0°F13.3°C 34% Calm Calm -- 29.77 in1008.1 mb 0.00 in0.0 mm 0.00 in0.0 mm 0.00 in0.0 mm
03:00 AM 87.4°F30.8°C 56.0°F13.3°C 34% Calm Calm -- 29.77 in1008.1 mb 0.00 in0.0 mm 0.00 in0.0 mm 0.00 in0.0 mm
03:10 AM 87.2°F30.7°C 56.0°F13.3°C 35% Calm Calm -- 29.77 in1008.1 mb 0.00 in0.0 mm 0.00 in0.0 mm 0.00 in0.0 mm
03:20 AM 86.5°F30.3°C 55.0°F12.8°C 34% 0.1 mph NNE0.2 kmh NNE 2.0 mph3.2 kmh 29.77 in1008.1 mb 0.00 in0.0 mm 0.00 in0.0 mm 0.00 in0.0 mm
03:30 AM 86.9°F30.5°C 52.0°F11.1°C 30% 1.1 mph NNE1.8 kmh NNE 3.0 mph4.8 kmh 29.77 in1008.1 mb 0.00 in0.0 mm 0.00 in0.0 mm 0.00 in0.0 mm
03:40 AM 86.8°F30.4°C 50.0°F10.0°C 28% 0.5 mph N0.8 kmh N 2.0 mph3.2 kmh 29.77 in1008.1 mb 0.00 in0.0 mm 0.00 in0.0 mm 0.00 in0.0 mm
03:50 AM 86.7°F30.4°C 51.0°F10.6°C 29% 0.1 mph N0.2 kmh N 1.0 mph1.6 kmh 29.77 in1008.1 mb 0.00 in0.0 mm 0.00 in0.0 mm 0.00 in0.0 mm
04:00 AM 85.7°F29.8°C 52.0°F11.1°C 31% Calm Calm -- 29.78 in1008.5 mb 0.00 in0.0 mm 0.00 in0.0 mm 0.00 in0.0 mm
04:10 AM 84.8°F29.3°C 53.0°F11.7°C 34% Calm Calm 1.0 mph1.6 kmh 29.78 in1008.5 mb 0.00 in0.0 mm 0.00 in0.0 mm 0.00 in0.0 mm
04:20 AM 84.6°F29.2°C 56.0°F13.3°C 38% Calm Calm -- 29.78 in1008.5 mb 0.00 in0.0 mm 0.00 in0.0 mm 0.00 in0.0 mm
04:30 AM 84.2°F29.0°C 57.0°F13.9°C 40% Calm Calm 1.0 mph1.6 kmh 29.79 in1008.8 mb 0.00 in0.0 mm 0.00 in0.0 mm 0.00 in0.0 mm
04:40 AM 83.7°F28.7°C 57.0°F13.9°C 40% Calm Calm -- 29.79 in1008.8 mb 0.00 in0.0 mm 0.00 in0.0 mm 0.00 in0.0 mm
04:50 AM 83.4°F28.6°C 53.0°F11.7°C 35% 0.2 mph N0.3 kmh N 1.0 mph1.6 kmh 29.79 in1008.8 mb 0.00 in0.0 mm 0.00 in0.0 mm 0.00 in0.0 mm
05:00 AM 83.2°F28.4°C 54.0°F12.2°C 36% Calm Calm -- 29.80 in1009.1 mb 0.00 in0.0 mm 0.00 in0.0 mm 0.00 in0.0 mm
05:10 AM 82.9°F28.3°C 52.0°F11.1°C 34% Calm Calm -- 29.80 in1009.1 mb 0.00 in0.0 mm 0.00 in0.0 mm 0.00 in0.0 mm
05:20 AM 83.5°F28.6°C 54.0°F12.2°C 37% Calm Calm 1.0 mph1.6 kmh 29.81 in1009.5 mb 0.00 in0.0 mm 0.00 in0.0 mm 0.00 in0.0 mm
05:30 AM 83.8°F28.8°C 51.0°F10.6°C 32% Calm Calm 1.0 mph1.6 kmh 29.81 in1009.5 mb 0.00 in0.0 mm 0.00 in0.0 mm 0.00 in0.0 mm
05:40 AM 84.1°F28.9°C 49.0°F9.4°C 30% Calm Calm 1.0 mph1.6 kmh 29.81 in1009.5 mb 0.00 in0.0 mm 0.00 in0.0 mm 0.00 in0.0 mm
05:50 AM 84.0°F28.9°C 52.0°F11.1°C 33% 0.4 mph NNE0.6 kmh NNE 2.0 mph3.2 kmh 29.80 in1009.1 mb 0.00 in0.0 mm 0.00 in0.0 mm 0.00 in0.0 mm
06:00 AM 84.2°F29.0°C 52.0°F11.1°C 33% 0.7 mph NNE1.1 kmh NNE 2.0 mph3.2 kmh 29.81 in1009.5 mb 0.00 in0.0 mm 0.00 in0.0 mm 0.00 in0.0 mm
06:10 AM 84.6°F29.2°C 51.0°F10.6°C 31% 0.1 mph SE0.2 kmh SE 2.0 mph3.2 kmh 29.82 in1009.8 mb 0.00 in0.0 mm 0.00 in0.0 mm 0.00 in0.0 mm
06:20 AM 84.7°F29.3°C 54.0°F12.2°C 35% 0.5 mph SE0.8 kmh SE 2.0 mph3.2 kmh 29.82 in1009.8 mb 0.00 in0.0 mm 0.00 in0.0 mm 0.00 in0.0 mm
06:30 AM 84.9°F29.4°C 55.0°F12.8°C 36% 0.6 mph SE1.0 kmh SE 2.0 mph3.2 kmh 29.83 in1010.2 mb 0.00 in0.0 mm 0.00 in0.0 mm 0.00 in0.0 mm
06:40 AM 84.8°F29.3°C 56.0°F13.3°C 37% Calm Calm 1.0 mph1.6 kmh 29.83 in1010.2 mb 0.00 in0.0 mm 0.00 in0.0 mm 0.00 in0.0 mm
06:50 AM 84.9°F29.4°C 57.0°F13.9°C 39% Calm Calm -- 29.82 in1009.8 mb 0.00 in0.0 mm 0.00 in0.0 mm 0.00 in0.0 mm
07:00 AM 84.9°F29.4°C 58.0°F14.4°C 40% Calm Calm -- 29.82 in1009.8 mb 0.00 in0.0 mm 0.00 in0.0 mm 0.00 in0.0 mm
07:10 AM 85.2°F29.6°C 58.0°F14.4°C 39% Calm Calm 1.0 mph1.6 kmh 29.83 in1010.2 mb 0.00 in0.0 mm 0.00 in0.0 mm 0.00 in0.0 mm
07:20 AM 85.7°F29.8°C 59.0°F15.0°C 40% 0.1 mph SSE0.2 kmh SSE 1.0 mph1.6 kmh 29.83 in1010.2 mb 0.00 in0.0 mm 0.00 in0.0 mm 0.00 in0.0 mm
07:30 AM 87.1°F30.6°C 59.0°F15.0°C 39% 0.5 mph SE0.8 kmh SE 2.0 mph3.2 kmh 29.84 in1010.5 mb 0.00 in0.0 mm 0.00 in0.0 mm 0.00 in0.0 mm
07:40 AM 88.4°F31.3°C 60.0°F15.6°C 38% 0.5 mph S0.8 kmh S 2.0 mph3.2 kmh 29.84 in1010.5 mb 0.00 in0.0 mm 0.00 in0.0 mm 0.00 in0.0 mm
07:50 AM 90.8°F32.7°C 61.0°F16.1°C 37% 0.6 mph SE1.0 kmh SE 3.0 mph4.8 kmh 29.84 in1010.5 mb 0.00 in0.0 mm 0.00 in0.0 mm 0.00 in0.0 mm
08:00 AM 92.1°F33.4°C 59.0°F15.0°C 33% 0.1 mph SE0.2 kmh SE 1.0 mph1.6 kmh 29.84 in1010.5 mb 0.00 in0.0 mm 0.00 in0.0 mm 0.00 in0.0 mm
08:10 AM 93.4°F34.1°C 60.0°F15.6°C 33% 0.4 mph SSW0.6 kmh SSW 2.0 mph3.2 kmh 29.85 in1010.8 mb 0.00 in0.0 mm 0.00 in0.0 mm 0.00 in0.0 mm
08:20 AM 93.3°F34.1°C 60.0°F15.6°C 33% 0.5 mph SE0.8 kmh SE 2.0 mph3.2 kmh 29.85 in1010.8 mb 0.00 in0.0 mm 0.00 in0.0 mm 0.00 in0.0 mm
08:30 AM 93.3°F34.1°C 59.0°F15.0°C 32% 0.4 mph SE0.6 kmh SE 3.0 mph4.8 kmh 29.85 in1010.8 mb 0.00 in0.0 mm 0.00 in0.0 mm 0.00 in0.0 mm
08:40 AM 93.8°F34.3°C 60.0°F15.6°C 32% 0.7 mph SE1.1 kmh SE 2.0 mph3.2 kmh 29.85 in1010.8 mb 0.00 in0.0 mm 0.00 in0.0 mm 0.00 in0.0 mm
08:50 AM 93.3°F34.1°C 59.0°F15.0°C 32% 1.1 mph SSE1.8 kmh SSE 3.0 mph4.8 kmh 29.85 in1010.8 mb 0.00 in0.0 mm 0.00 in0.0 mm 0.00 in0.0 mm
09:00 AM 92.3°F33.5°C 59.0°F15.0°C 33% 1.2 mph SSW1.9 kmh SSW 4.0 mph6.4 kmh 29.85 in1010.8 mb 0.00 in0.0 mm 0.00 in0.0 mm 0.00 in0.0 mm
09:10 AM 92.7°F33.7°C 60.0°F15.6°C 33% 1.9 mph SSE3.1 kmh SSE 5.0 mph8.0 kmh 29.86 in1011.2 mb 0.00 in0.0 mm 0.00 in0.0 mm 0.00 in0.0 mm
09:20 AM 92.8°F33.8°C 60.0°F15.6°C 33% 1.9 mph SW3.1 kmh SW 5.0 mph8.0 kmh 29.86 in1011.2 mb 0.00 in0.0 mm 0.00 in0.0 mm 0.00 in0.0 mm
09:30 AM 93.5°F34.2°C 60.0°F15.6°C 32% 1.0 mph SE1.6 kmh SE 3.0 mph4.8 kmh 29.86 in1011.2 mb 0.00 in0.0 mm 0.00 in0.0 mm 0.00 in0.0 mm
09:40 AM 92.9°F33.8°C 59.0°F15.0°C 32% 1.8 mph SSW2.9 kmh SSW 7.0 mph11.3 kmh 29.86 in1011.2 mb 0.00 in0.0 mm 0.00 in0.0 mm 0.00 in0.0 mm
09:50 AM 92.3°F33.5°C 59.0°F15.0°C 33% 1.9 mph SE3.1 kmh SE 5.0 mph8.0 kmh 29.86 in1011.2 mb 0.00 in0.0 mm 0.00 in0.0 mm 0.00 in0.0 mm
10:00 AM 91.9°F33.3°C 59.0°F15.0°C 33% 2.2 mph S3.5 kmh S 6.0 mph9.7 kmh 29.87 in1011.5 mb 0.00 in0.0 mm 0.00 in0.0 mm 0.00 in0.0 mm
10:10 AM 91.7°F33.2°C 59.0°F15.0°C 33% 2.2 mph SW3.5 kmh SW 6.0 mph9.7 kmh 29.87 in1011.5 mb 0.00 in0.0 mm 0.00 in0.0 mm 0.00 in0.0 mm
10:20 AM 91.6°F33.1°C 59.0°F15.0°C 33% 1.8 mph S2.9 kmh S 4.0 mph6.4 kmh 29.87 in1011.5 mb 0.00 in0.0 mm 0.00 in0.0 mm 0.00 in0.0 mm
10:30 AM 91.5°F33.1°C 59.0°F15.0°C 33% 1.9 mph SE3.1 kmh SE 6.0 mph9.7 kmh 29.87 in1011.5 mb 0.00 in0.0 mm 0.00 in0.0 mm 0.00 in0.0 mm
10:40 AM 91.8°F33.2°C 59.0°F15.0°C 33% 1.5 mph ESE2.4 kmh ESE 4.0 mph6.4 kmh 29.87 in1011.5 mb 0.00 in0.0 mm 0.00 in0.0 mm 0.00 in0.0 mm
10:50 AM 92.0°F33.3°C 59.0°F15.0°C 33% 1.4 mph SE2.3 kmh SE 4.0 mph6.4 kmh 29.87 in1011.5 mb 0.00 in0.0 mm 0.00 in0.0 mm 0.00 in0.0 mm
11:00 AM 93.2°F34.0°C 59.0°F15.0°C 32% 0.5 mph SE0.8 kmh SE 2.0 mph3.2 kmh 29.86 in1011.2 mb 0.00 in0.0 mm 0.00 in0.0 mm 0.00 in0.0 mm
11:10 AM 94.2°F34.6°C 59.0°F15.0°C 31% 0.4 mph SE0.6 kmh SE 3.0 mph4.8 kmh 29.86 in1011.2 mb 0.00 in0.0 mm 0.00 in0.0 mm 0.00 in0.0 mm
11:20 AM 96.0°F35.6°C 60.0°F15.6°C 30% 0.5 mph SE0.8 kmh SE 3.0 mph4.8 kmh 29.85 in1010.8 mb 0.00 in0.0 mm 0.00 in0.0 mm 0.00 in0.0 mm
11:30 AM 98.1°F36.7°C 60.0°F15.6°C 28% 0.8 mph SE1.3 kmh SE 3.0 mph4.8 kmh 29.85 in1010.8 mb 0.00 in0.0 mm 0.00 in0.0 mm 0.00 in0.0 mm
11:40 AM 99.1°F37.3°C 59.0°F15.0°C 26% 0.8 mph N1.3 kmh N 3.0 mph4.8 kmh 29.84 in1010.5 mb 0.00 in0.0 mm 0.00 in0.0 mm 0.00 in0.0 mm
11:50 AM 99.8°F37.7°C 59.0°F15.0°C 26% 1.2 mph N1.9 kmh N 5.0 mph8.0 kmh 29.84 in1010.5 mb 0.00 in0.0 mm 0.00 in0.0 mm 0.00 in0.0 mm
12:00 PM 101.0°F38.3°C 59.0°F15.0°C 25% 1.6 mph SSE2.6 kmh SSE 5.0 mph8.0 kmh 29.83 in1010.2 mb 0.00 in0.0 mm 0.00 in0.0 mm 0.00 in0.0 mm
12:10 PM 101.8°F38.8°C 59.0°F15.0°C 24% 1.1 mph SE1.8 kmh SE 6.0 mph9.7 kmh 29.83 in1010.2 mb 0.00 in0.0 mm 0.00 in0.0 mm 0.00 in0.0 mm
12:20 PM 101.7°F38.7°C 58.0°F14.4°C 23% 1.9 mph N3.1 kmh N 6.0 mph9.7 kmh 29.82 in1009.8 mb 0.00 in0.0 mm 0.00 in0.0 mm 0.00 in0.0 mm
12:30 PM 102.9°F39.4°C 60.0°F15.6°C 24% 1.8 mph SW2.9 kmh SW 7.0 mph11.3 kmh 29.82 in1009.8 mb 0.00 in0.0 mm 0.00 in0.0 mm 0.00 in0.0 mm
12:40 PM 103.5°F39.7°C 58.0°F14.4°C 22% 1.7 mph SW2.7 kmh SW 9.0 mph14.5 kmh 29.82 in1009.8 mb 0.00 in0.0 mm 0.00 in0.0 mm 0.00 in0.0 mm
12:50 PM 104.0°F40.0°C 58.0°F14.4°C 22% 2.6 mph SW4.2 kmh SW 8.0 mph12.9 kmh 29.81 in1009.5 mb 0.00 in0.0 mm 0.00 in0.0 mm 0.00 in0.0 mm
01:00 PM 104.2°F40.1°C 58.0°F14.4°C 22% 3.0 mph SW4.8 kmh SW 9.0 mph14.5 kmh 29.81 in1009.5 mb 0.00 in0.0 mm 0.00 in0.0 mm 0.00 in0.0 mm
01:10 PM 103.2°F39.6°C 58.0°F14.4°C 22% 3.1 mph SW5.0 kmh SW 8.0 mph12.9 kmh 29.80 in1009.1 mb 0.00 in0.0 mm 0.00 in0.0 mm 0.00 in0.0 mm
01:20 PM 103.7°F39.8°C 57.0°F13.9°C 21% 3.5 mph SSE5.6 kmh SSE 10.0 mph16.1 kmh 29.80 in1009.1 mb 0.00 in0.0 mm 0.00 in0.0 mm 0.00 in0.0 mm
01:30 PM 103.8°F39.9°C 58.0°F14.4°C 22% 2.8 mph S4.5 kmh S 8.0 mph12.9 kmh 29.80 in1009.1 mb 0.00 in0.0 mm 0.00 in0.0 mm 0.00 in0.0 mm
01:40 PM 103.9°F39.9°C 57.0°F13.9°C 21% 4.0 mph SW6.4 kmh SW 13.0 mph20.9 kmh 29.79 in1008.8 mb 0.00 in0.0 mm 0.00 in0.0 mm 0.00 in0.0 mm
01:50 PM 104.3°F40.2°C 57.0°F13.9°C 21% 2.8 mph SW4.5 kmh SW 8.0 mph12.9 kmh 29.79 in1008.8 mb 0.00 in0.0 mm 0.00 in0.0 mm 0.00 in0.0 mm
02:00 PM 103.5°F39.7°C 58.0°F14.4°C 22% 4.4 mph SW7.1 kmh SW 11.0 mph17.7 kmh 29.79 in1008.8 mb 0.00 in0.0 mm 0.00 in0.0 mm 0.00 in0.0 mm
02:10 PM 104.2°F40.1°C 58.0°F14.4°C 22% 3.2 mph S5.1 kmh S 9.0 mph14.5 kmh 29.78 in1008.5 mb 0.00 in0.0 mm 0.00 in0.0 mm 0.00 in0.0 mm
02:20 PM 105.0°F40.6°C 59.0°F15.0°C 22% 3.9 mph WSW6.3 kmh WSW 13.0 mph20.9 kmh 29.78 in1008.5 mb 0.00 in0.0 mm 0.00 in0.0 mm 0.00 in0.0 mm
02:30 PM 104.5°F40.3°C 59.0°F15.0°C 22% 5.7 mph SW9.2 kmh SW 14.0 mph22.5 kmh 29.77 in1008.1 mb 0.00 in0.0 mm 0.00 in0.0 mm 0.00 in0.0 mm
02:40 PM 104.5°F40.3°C 57.0°F13.9°C 21% 5.0 mph S8.0 kmh S 12.0 mph19.3 kmh 29.77 in1008.1 mb 0.00 in0.0 mm 0.00 in0.0 mm 0.00 in0.0 mm
02:50 PM 105.1°F40.6°C 57.0°F13.9°C 20% 4.4 mph S7.1 kmh S 13.0 mph20.9 kmh 29.76 in1007.8 mb 0.00 in0.0 mm 0.00 in0.0 mm 0.00 in0.0 mm
03:00 PM 105.0°F40.6°C 57.0°F13.9°C 20% 4.5 mph S7.2 kmh S 13.0 mph20.9 kmh 29.75 in1007.5 mb 0.00 in0.0 mm 0.00 in0.0 mm 0.00 in0.0 mm
03:10 PM 104.5°F40.3°C 57.0°F13.9°C 21% 4.8 mph S7.7 kmh S 12.0 mph19.3 kmh 29.75 in1007.5 mb 0.00 in0.0 mm 0.00 in0.0 mm 0.00 in0.0 mm
03:20 PM 104.5°F40.3°C 56.0°F13.3°C 20% 4.3 mph WSW6.9 kmh WSW 12.0 mph19.3 kmh 29.74 in1007.1 mb 0.00 in0.0 mm 0.00 in0.0 mm 0.00 in0.0 mm
03:30 PM 104.3°F40.2°C 57.0°F13.9°C 21% 3.9 mph S6.3 kmh S 12.0 mph19.3 kmh 29.74 in1007.1 mb 0.00 in0.0 mm 0.00 in0.0 mm 0.00 in0.0 mm
03:40 PM 103.9°F39.9°C 57.0°F13.9°C 21% 4.9 mph SW7.9 kmh SW 12.0 mph19.3 kmh 29.73 in1006.8 mb 0.00 in0.0 mm 0.00 in0.0 mm 0.00 in0.0 mm
03:50 PM 104.7°F40.4°C 56.0°F13.3°C 20% 3.2 mph S5.1 kmh S 10.0 mph16.1 kmh 29.73 in1006.8 mb 0.00 in0.0 mm 0.00 in0.0 mm 0.00 in0.0 mm
04:00 PM 105.2°F40.7°C 55.0°F12.8°C 19% 2.8 mph SSW4.5 kmh SSW 8.0 mph12.9 kmh 29.72 in1006.4 mb 0.00 in0.0 mm 0.00 in0.0 mm 0.00 in0.0 mm
04:10 PM 105.5°F40.8°C 52.0°F11.1°C 17% 5.4 mph SE8.7 kmh SE 11.0 mph17.7 kmh 29.72 in1006.4 mb 0.00 in0.0 mm 0.00 in0.0 mm 0.00 in0.0 mm
04:20 PM 106.1°F41.2°C 53.0°F11.7°C 17% 2.7 mph SW4.3 kmh SW 10.0 mph16.1 kmh 29.71 in1006.1 mb 0.00 in0.0 mm 0.00 in0.0 mm 0.00 in0.0 mm
04:30 PM 106.0°F41.1°C 53.0°F11.7°C 17% 4.1 mph SSW6.6 kmh SSW 11.0 mph17.7 kmh 29.71 in1006.1 mb 0.00 in0.0 mm 0.00 in0.0 mm 0.00 in0.0 mm
04:40 PM 106.6°F41.4°C 53.0°F11.7°C 17% 3.5 mph SW5.6 kmh SW 9.0 mph14.5 kmh 29.71 in1006.1 mb 0.00 in0.0 mm 0.00 in0.0 mm 0.00 in0.0 mm
04:50 PM 106.5°F41.4°C 52.0°F11.1°C 16% 2.8 mph SW4.5 kmh SW 11.0 mph17.7 kmh 29.71 in1006.1 mb 0.00 in0.0 mm 0.00 in0.0 mm 0.00 in0.0 mm
05:00 PM 106.6°F41.4°C 52.0°F11.1°C 16% 3.9 mph SW6.3 kmh SW 10.0 mph16.1 kmh 29.71 in1006.1 mb 0.00 in0.0 mm 0.00 in0.0 mm 0.00 in0.0 mm
05:10 PM 106.7°F41.5°C 52.0°F11.1°C 16% 1.0 mph SE1.6 kmh SE 4.0 mph6.4 kmh 29.70 in1005.8 mb 0.00 in0.0 mm 0.00 in0.0 mm 0.00 in0.0 mm
05:20 PM 105.6°F40.9°C 53.0°F11.7°C 17% 3.5 mph SW5.6 kmh SW 11.0 mph17.7 kmh 29.70 in1005.8 mb 0.00 in0.0 mm 0.00 in0.0 mm 0.00 in0.0 mm
05:30 PM 105.5°F40.8°C 51.0°F10.6°C 16% 3.1 mph S5.0 kmh S 13.0 mph20.9 kmh 29.70 in1005.8 mb 0.00 in0.0 mm 0.00 in0.0 mm 0.00 in0.0 mm
05:40 PM 104.7°F40.4°C 52.0°F11.1°C 17% 4.4 mph SSW7.1 kmh SSW 11.0 mph17.7 kmh 29.70 in1005.8 mb 0.00 in0.0 mm 0.00 in0.0 mm 0.00 in0.0 mm
05:50 PM 104.5°F40.3°C 52.0°F11.1°C 17% 3.7 mph SW6.0 kmh SW 13.0 mph20.9 kmh 29.70 in1005.8 mb 0.00 in0.0 mm 0.00 in0.0 mm 0.00 in0.0 mm
06:00 PM 104.7°F40.4°C 52.0°F11.1°C 17% 3.3 mph SE5.3 kmh SE 9.0 mph14.5 kmh 29.70 in1005.8 mb 0.00 in0.0 mm 0.00 in0.0 mm 0.00 in0.0 mm
06:10 PM 104.5°F40.3°C 52.0°F11.1°C 17% 1.8 mph SW2.9 kmh SW 8.0 mph12.9 kmh 29.70 in1005.8 mb 0.00 in0.0 mm 0.00 in0.0 mm 0.00 in0.0 mm
06:20 PM 104.4°F40.2°C 52.0°F11.1°C 17% 2.3 mph SW3.7 kmh SW 10.0 mph16.1 kmh 29.70 in1005.8 mb 0.00 in0.0 mm 0.00 in0.0 mm 0.00 in0.0 mm
06:30 PM 104.4°F40.2°C 50.0°F10.0°C 16% 3.0 mph SSW4.8 kmh SSW 9.0 mph14.5 kmh 29.70 in1005.8 mb 0.00 in0.0 mm 0.00 in0.0 mm 0.00 in0.0 mm
06:40 PM 104.4°F40.2°C 53.0°F11.7°C 18% 5.1 mph SSE8.2 kmh SSE 10.0 mph16.1 kmh 29.70 in1005.8 mb 0.00 in0.0 mm 0.00 in0.0 mm 0.00 in0.0 mm
06:50 PM 104.2°F40.1°C 53.0°F11.7°C 18% 4.1 mph SW6.6 kmh SW 10.0 mph16.1 kmh 29.71 in1006.1 mb 0.00 in0.0 mm 0.00 in0.0 mm 0.00 in0.0 mm
07:00 PM 104.3°F40.2°C 51.0°F10.6°C 17% 3.5 mph SW5.6 kmh SW 9.0 mph14.5 kmh 29.71 in1006.1 mb 0.00 in0.0 mm 0.00 in0.0 mm 0.00 in0.0 mm
07:10 PM 104.0°F40.0°C 51.0°F10.6°C 17% 3.3 mph SW5.3 kmh SW 9.0 mph14.5 kmh 29.71 in1006.1 mb 0.00 in0.0 mm 0.00 in0.0 mm 0.00 in0.0 mm
07:20 PM 103.6°F39.8°C 51.0°F10.6°C 17% 3.2 mph S5.1 kmh S 8.0 mph12.9 kmh 29.72 in1006.4 mb 0.00 in0.0 mm 0.00 in0.0 mm 0.00 in0.0 mm
07:30 PM 103.3°F39.6°C 51.0°F10.6°C 17% 3.0 mph SSW4.8 kmh SSW 8.0 mph12.9 kmh 29.73 in1006.8 mb 0.00 in0.0 mm 0.00 in0.0 mm 0.00 in0.0 mm
07:40 PM 102.9°F39.4°C 52.0°F11.1°C 18% 4.0 mph SW6.4 kmh SW 11.0 mph17.7 kmh 29.73 in1006.8 mb 0.00 in0.0 mm 0.00 in0.0 mm 0.00 in0.0 mm
07:50 PM 102.4°F39.1°C 53.0°F11.7°C 19% 4.4 mph S7.1 kmh S 10.0 mph16.1 kmh 29.73 in1006.8 mb 0.00 in0.0 mm 0.00 in0.0 mm 0.00 in0.0 mm
08:00 PM 101.9°F38.8°C 52.0°F11.1°C 19% 3.8 mph SSW6.1 kmh SSW 8.0 mph12.9 kmh 29.73 in1006.8 mb 0.00 in0.0 mm 0.00 in0.0 mm 0.00 in0.0 mm
08:10 PM 101.5°F38.6°C 52.0°F11.1°C 19% 2.9 mph SE4.7 kmh SE 7.0 mph11.3 kmh 29.74 in1007.1 mb 0.00 in0.0 mm 0.00 in0.0 mm 0.00 in0.0 mm
08:20 PM 100.4°F38.0°C 55.0°F12.8°C 22% 5.4 mph SSW8.7 kmh SSW 11.0 mph17.7 kmh 29.75 in1007.5 mb 0.00 in0.0 mm 0.00 in0.0 mm 0.00 in0.0 mm
08:30 PM 99.5°F37.5°C 56.0°F13.3°C 23% 5.1 mph SW8.2 kmh SW 13.0 mph20.9 kmh 29.75 in1007.5 mb 0.00 in0.0 mm 0.00 in0.0 mm 0.00 in0.0 mm
08:40 PM 98.8°F37.1°C 55.0°F12.8°C 23% 4.9 mph SSE7.9 kmh SSE 14.0 mph22.5 kmh 29.76 in1007.8 mb 0.00 in0.0 mm 0.00 in0.0 mm 0.00 in0.0 mm
08:50 PM 98.3°F36.8°C 55.0°F12.8°C 23% 5.3 mph SW8.5 kmh SW 17.0 mph27.4 kmh 29.77 in1008.1 mb 0.00 in0.0 mm 0.00 in0.0 mm 0.00 in0.0 mm
09:00 PM 97.9°F36.6°C 55.0°F12.8°C 24% 5.6 mph SE9.0 kmh SE 13.0 mph20.9 kmh 29.78 in1008.5 mb 0.00 in0.0 mm 0.00 in0.0 mm 0.00 in0.0 mm
09:10 PM 97.3°F36.3°C 55.0°F12.8°C 24% 5.1 mph SW8.2 kmh SW 13.0 mph20.9 kmh 29.79 in1008.8 mb 0.00 in0.0 mm 0.00 in0.0 mm 0.00 in0.0 mm
09:20 PM 97.0°F36.1°C 55.0°F12.8°C 24% 5.2 mph SW8.4 kmh SW 12.0 mph19.3 kmh 29.80 in1009.1 mb 0.00 in0.0 mm 0.00 in0.0 mm 0.00 in0.0 mm
09:30 PM 96.6°F35.9°C 55.0°F12.8°C 25% 5.0 mph S8.0 kmh S 12.0 mph19.3 kmh 29.80 in1009.1 mb 0.00 in0.0 mm 0.00 in0.0 mm 0.00 in0.0 mm
09:40 PM 96.2°F35.7°C 55.0°F12.8°C 25% 2.6 mph SW4.2 kmh SW 7.0 mph11.3 kmh 29.82 in1009.8 mb 0.00 in0.0 mm 0.00 in0.0 mm 0.00 in0.0 mm
09:50 PM 95.7°F35.4°C 56.0°F13.3°C 26% 2.0 mph SE3.2 kmh SE 6.0 mph9.7 kmh 29.82 in1009.8 mb 0.00 in0.0 mm 0.00 in0.0 mm 0.00 in0.0 mm
10:00 PM 95.0°F35.0°C 56.0°F13.3°C 27% 2.6 mph ESE4.2 kmh ESE 6.0 mph9.7 kmh 29.82 in1009.8 mb 0.00 in0.0 mm 0.00 in0.0 mm 0.00 in0.0 mm
10:10 PM 94.7°F34.8°C 57.0°F13.9°C 28% 2.0 mph S3.2 kmh S 7.0 mph11.3 kmh 29.83 in1010.2 mb 0.00 in0.0 mm 0.00 in0.0 mm 0.00 in0.0 mm
10:20 PM 94.4°F34.7°C 57.0°F13.9°C 28% 1.8 mph S2.9 kmh S 4.0 mph6.4 kmh 29.83 in1010.2 mb 0.00 in0.0 mm 0.00 in0.0 mm 0.00 in0.0 mm
10:30 PM 94.1°F34.5°C 58.0°F14.4°C 30% 1.6 mph SSW2.6 kmh SSW 5.0 mph8.0 kmh 29.83 in1010.2 mb 0.00 in0.0 mm 0.00 in0.0 mm 0.00 in0.0 mm
10:40 PM 93.6°F34.2°C 59.0°F15.0°C 31% 2.0 mph S3.2 kmh S 8.0 mph12.9 kmh 29.83 in1010.2 mb 0.00 in0.0 mm 0.00 in0.0 mm 0.00 in0.0 mm
10:50 PM 93.2°F34.0°C 58.0°F14.4°C 31% 2.2 mph SSW3.5 kmh SSW 5.0 mph8.0 kmh 29.83 in1010.2 mb 0.00 in0.0 mm 0.00 in0.0 mm 0.00 in0.0 mm
11:00 PM 93.0°F33.9°C 58.0°F14.4°C 31% 2.8 mph SW4.5 kmh SW 7.0 mph11.3 kmh 29.83 in1010.2 mb 0.00 in0.0 mm 0.00 in0.0 mm 0.00 in0.0 mm
11:10 PM 92.9°F33.8°C 58.0°F14.4°C 31% 3.1 mph SW5.0 kmh SW 7.0 mph11.3 kmh 29.82 in1009.8 mb 0.00 in0.0 mm 0.00 in0.0 mm 0.00 in0.0 mm
11:20 PM 92.6°F33.7°C 58.0°F14.4°C 31% 2.2 mph SW3.5 kmh SW 5.0 mph8.0 kmh 29.83 in1010.2 mb 0.00 in0.0 mm 0.00 in0.0 mm 0.00 in0.0 mm
11:30 PM 92.4°F33.6°C 58.0°F14.4°C 31% 1.2 mph SSW1.9 kmh SSW 3.0 mph4.8 kmh 29.83 in1010.2 mb 0.00 in0.0 mm 0.00 in0.0 mm 0.00 in0.0 mm
11:40 PM 92.1°F33.4°C 57.0°F13.9°C 31% 0.8 mph SSW1.3 kmh SSW 3.0 mph4.8 kmh 29.83 in1010.2 mb 0.00 in0.0 mm 0.00 in0.0 mm 0.00 in0.0 mm
11:50 PM 91.7°F33.2°C 58.0°F14.4°C 32% 0.2 mph SSE0.3 kmh SSE 2.0 mph3.2 kmh 29.83 in1010.2 mb 0.00 in0.0 mm 0.00 in0.0 mm 0.00 in0.0 mm